DAL366 MMMX-KATL
Flight info
| Callsign | DAL366 |
|---|---|
| Flight time | 2h 36m |
| Altitude | 37000 |
| Route | IKLAN2A IKLAN UT140 TAM UM575 CLONN M575 TBD DCT GCV DCT PAYTN DCT SHYRE GNDLF3 |
| Aircraft | B763/H-SDE3FGHIM3RWXY/LB1 |
Departure
| Time | 2026-05-01 11:12 |
|---|---|
| Airport | Mexico City Benito Juárez International Airport (MMMX) |
Arrival
| Time | 2026-05-01 13:49 |
|---|---|
| Airport | Hartsfield Jackson Atlanta International Airport (KATL) |
| Time | Latitude | Longitude | Altitude | Speed | Heading |
|---|---|---|---|---|---|
| 2026-05-01 10:40 | 19.43523 | -99.08113 | 7326 ft | 0 kts | 328° |
| 2026-05-01 11:01 | 19.43511 | -99.08105 | 7325 ft | 2 kts | 328° |
| 2026-05-01 11:01 | 19.43498 | -99.08096 | 7325 ft | 2 kts | 328° |
| 2026-05-01 11:01 | 19.43485 | -99.08088 | 7325 ft | 2 kts | 328° |
| 2026-05-01 11:01 | 19.43476 | -99.08083 | 7325 ft | 1 kts | 328° |
| 2026-05-01 11:02 | 19.43464 | -99.08073 | 7325 ft | 2 kts | 304° |
| 2026-05-01 11:02 | 19.43458 | -99.08057 | 7325 ft | 2 kts | 279° |
| 2026-05-01 11:02 | 19.43458 | -99.08041 | 7325 ft | 2 kts | 254° |
| 2026-05-01 11:02 | 19.43462 | -99.08031 | 7325 ft | 1 kts | 239° |
| 2026-05-01 11:03 | 19.43463 | -99.08028 | 7325 ft | 0 kts | 238° |
| 2026-05-01 11:05 | 19.43460 | -99.08034 | 7325 ft | 2 kts | 239° |
| 2026-05-01 11:05 | 19.43444 | -99.08063 | 7325 ft | 6 kts | 241° |
| 2026-05-01 11:05 | 19.43420 | -99.08109 | 7325 ft | 7 kts | 240° |
| 2026-05-01 11:06 | 19.43388 | -99.08167 | 7325 ft | 9 kts | 238° |
| 2026-05-01 11:06 | 19.43350 | -99.08232 | 7325 ft | 10 kts | 239° |
| 2026-05-01 11:06 | 19.43308 | -99.08306 | 7325 ft | 12 kts | 239° |
| 2026-05-01 11:07 | 19.43210 | -99.08482 | 7325 ft | 14 kts | 239° |
| 2026-05-01 11:07 | 19.43155 | -99.08579 | 7325 ft | 15 kts | 239° |
| 2026-05-01 11:07 | 19.43098 | -99.08681 | 7325 ft | 16 kts | 239° |
| 2026-05-01 11:07 | 19.43039 | -99.08786 | 7325 ft | 16 kts | 239° |
| 2026-05-01 11:08 | 19.42977 | -99.08896 | 7325 ft | 17 kts | 239° |
| 2026-05-01 11:08 | 19.42910 | -99.09006 | 7325 ft | 16 kts | 226° |
| 2026-05-01 11:08 | 19.42708 | -99.09072 | 7325 ft | 14 kts | 142° |
| 2026-05-01 11:09 | 19.42683 | -99.08975 | 7325 ft | 13 kts | 86° |
| 2026-05-01 11:09 | 19.42686 | -99.08876 | 7325 ft | 12 kts | 90° |
| 2026-05-01 11:09 | 19.42681 | -99.08783 | 7325 ft | 11 kts | 94° |
| 2026-05-01 11:10 | 19.42691 | -99.08604 | 7325 ft | 12 kts | 64° |
| 2026-05-01 11:10 | 19.42702 | -99.08582 | 7325 ft | 0 kts | 61° |
| 2026-05-01 11:10 | 19.42703 | -99.08581 | 7325 ft | 2 kts | 61° |
| 2026-05-01 11:11 | 19.42733 | -99.08527 | 7325 ft | 13 kts | 59° |
| 2026-05-01 11:11 | 19.42803 | -99.08405 | 7325 ft | 26 kts | 59° |
| 2026-05-01 11:11 | 19.42962 | -99.08119 | 7325 ft | 70 kts | 59° |
| 2026-05-01 11:11 | 19.43324 | -99.07466 | 7326 ft | 133 kts | 59° |
| 2026-05-01 11:12 | 19.43923 | -99.06404 | 7354 ft | 191 kts | 59° |
| 2026-05-01 11:12 | 19.44627 | -99.05090 | 7895 ft | 212 kts | 59° |
| 2026-05-01 11:12 | 19.45517 | -99.03680 | 8439 ft | 236 kts | 55° |
| 2026-05-01 11:12 | 19.46423 | -99.02238 | 8958 ft | 227 kts | 57° |
| 2026-05-01 11:13 | 19.47309 | -99.00771 | 9528 ft | 229 kts | 57° |
| 2026-05-01 11:13 | 19.48202 | -98.99268 | 9950 ft | 241 kts | 57° |
| 2026-05-01 11:13 | 19.49188 | -98.97587 | 9955 ft | 268 kts | 58° |
| 2026-05-01 11:13 | 19.50154 | -98.95873 | 10469 ft | 260 kts | 59° |
| 2026-05-01 11:14 | 19.51129 | -98.94138 | 11068 ft | 267 kts | 59° |
| 2026-05-01 11:14 | 19.52110 | -98.92388 | 11696 ft | 273 kts | 59° |
| 2026-05-01 11:14 | 19.53149 | -98.90592 | 12326 ft | 278 kts | 53° |
| 2026-05-01 11:14 | 19.54477 | -98.88957 | 12971 ft | 283 kts | 45° |
| 2026-05-01 11:15 | 19.56119 | -98.87729 | 13591 ft | 286 kts | 20° |
| 2026-05-01 11:15 | 19.58127 | -98.87415 | 14200 ft | 289 kts | 353° |
| 2026-05-01 11:15 | 19.60165 | -98.87774 | 14777 ft | 295 kts | 355° |
| 2026-05-01 11:15 | 19.62297 | -98.87842 | 15339 ft | 301 kts | 359° |
| 2026-05-01 11:16 | 19.64462 | -98.87866 | 15889 ft | 308 kts | 359° |
| 2026-05-01 11:16 | 19.66715 | -98.87904 | 16404 ft | 317 kts | 359° |
| 2026-05-01 11:16 | 19.68982 | -98.87940 | 16872 ft | 322 kts | 359° |
| 2026-05-01 11:16 | 19.71291 | -98.87975 | 17347 ft | 335 kts | 359° |
| 2026-05-01 11:17 | 19.73734 | -98.88013 | 17842 ft | 356 kts | 359° |
| 2026-05-01 11:17 | 19.76316 | -98.88052 | 18331 ft | 375 kts | 359° |
| 2026-05-01 11:17 | 19.79039 | -98.88092 | 18807 ft | 381 kts | 359° |
| 2026-05-01 11:17 | 19.81745 | -98.88133 | 19264 ft | 381 kts | 359° |
| 2026-05-01 11:18 | 19.84420 | -98.88173 | 19878 ft | 381 kts | 359° |
| 2026-05-01 11:18 | 19.87147 | -98.88213 | 20646 ft | 386 kts | 359° |
| 2026-05-01 11:18 | 19.89886 | -98.88254 | 21416 ft | 393 kts | 359° |
| 2026-05-01 11:18 | 19.92682 | -98.88297 | 22186 ft | 397 kts | 359° |
| 2026-05-01 11:19 | 19.95497 | -98.88339 | 22953 ft | 400 kts | 358° |
| 2026-05-01 11:19 | 19.98345 | -98.88382 | 23722 ft | 405 kts | 358° |
| 2026-05-01 11:19 | 20.01266 | -98.88426 | 24541 ft | 409 kts | 358° |
| 2026-05-01 11:19 | 20.04217 | -98.88470 | 25323 ft | 413 kts | 358° |
| 2026-05-01 11:20 | 20.07205 | -98.88515 | 26072 ft | 417 kts | 358° |
| 2026-05-01 11:20 | 20.10231 | -98.88561 | 26795 ft | 422 kts | 358° |
| 2026-05-01 11:20 | 20.13319 | -98.88608 | 27493 ft | 426 kts | 358° |
| 2026-05-01 11:20 | 20.16401 | -98.88654 | 28166 ft | 430 kts | 358° |
| 2026-05-01 11:21 | 20.19528 | -98.88702 | 28818 ft | 434 kts | 358° |
| 2026-05-01 11:21 | 20.22679 | -98.88749 | 29164 ft | 443 kts | 358° |
| 2026-05-01 11:21 | 20.29049 | -98.88844 | 29138 ft | 434 kts | 358° |
| 2026-05-01 11:22 | 20.35302 | -98.88940 | 29148 ft | 437 kts | 358° |
| 2026-05-01 11:22 | 20.41587 | -98.88782 | 29248 ft | 442 kts | 8° |
| 2026-05-01 11:23 | 20.44657 | -98.87945 | 29942 ft | 445 kts | 18° |
| 2026-05-01 11:23 | 20.47621 | -98.86589 | 30542 ft | 449 kts | 24° |
| 2026-05-01 11:23 | 20.50512 | -98.85091 | 31138 ft | 451 kts | 24° |
| 2026-05-01 11:23 | 20.53420 | -98.83543 | 31878 ft | 449 kts | 25° |
| 2026-05-01 11:24 | 20.56284 | -98.81997 | 32584 ft | 447 kts | 25° |
| 2026-05-01 11:24 | 20.59165 | -98.80431 | 33240 ft | 446 kts | 25° |
| 2026-05-01 11:24 | 20.64819 | -98.77342 | 34438 ft | 443 kts | 25° |
| 2026-05-01 11:25 | 20.67634 | -98.75801 | 34991 ft | 441 kts | 25° |
| 2026-05-01 11:25 | 20.73286 | -98.72704 | 36008 ft | 438 kts | 25° |
| 2026-05-01 11:25 | 20.76119 | -98.71151 | 36444 ft | 437 kts | 25° |
| 2026-05-01 11:26 | 20.78971 | -98.69585 | 36828 ft | 437 kts | 25° |
| 2026-05-01 11:26 | 20.84608 | -98.66491 | 37113 ft | 441 kts | 25° |
| 2026-05-01 11:27 | 20.90188 | -98.63424 | 37115 ft | 434 kts | 25° |
| 2026-05-01 11:27 | 20.95808 | -98.60333 | 37119 ft | 436 kts | 25° |
| 2026-05-01 11:28 | 21.01379 | -98.57264 | 37117 ft | 436 kts | 24° |
| 2026-05-01 11:28 | 21.06967 | -98.54185 | 37118 ft | 437 kts | 24° |
| 2026-05-01 11:29 | 21.15372 | -98.49550 | 37124 ft | 439 kts | 23° |
| 2026-05-01 11:30 | 21.23830 | -98.44881 | 37126 ft | 438 kts | 23° |
| 2026-05-01 11:30 | 21.29464 | -98.41766 | 37126 ft | 438 kts | 23° |
| 2026-05-01 11:31 | 21.35074 | -98.38662 | 37123 ft | 439 kts | 23° |
| 2026-05-01 11:31 | 21.40684 | -98.35555 | 37124 ft | 439 kts | 23° |
| 2026-05-01 11:32 | 21.46263 | -98.32462 | 37117 ft | 439 kts | 24° |
| 2026-05-01 11:32 | 21.51869 | -98.29352 | 37115 ft | 439 kts | 23° |
| 2026-05-01 11:33 | 21.57454 | -98.26251 | 37117 ft | 439 kts | 24° |
| 2026-05-01 11:33 | 21.63075 | -98.23127 | 37116 ft | 439 kts | 24° |
| 2026-05-01 11:34 | 21.68718 | -98.19988 | 37114 ft | 439 kts | 24° |
| 2026-05-01 11:34 | 21.74327 | -98.16865 | 37116 ft | 439 kts | 23° |
| 2026-05-01 11:35 | 21.79990 | -98.13710 | 37116 ft | 439 kts | 24° |
| 2026-05-01 11:35 | 21.85675 | -98.10539 | 37115 ft | 438 kts | 24° |
| 2026-05-01 11:36 | 21.91347 | -98.07372 | 37116 ft | 438 kts | 24° |
| 2026-05-01 11:36 | 21.96998 | -98.04215 | 37118 ft | 439 kts | 24° |
| 2026-05-01 11:37 | 22.02641 | -98.01059 | 37118 ft | 438 kts | 23° |
| 2026-05-01 11:37 | 22.08266 | -97.97910 | 37118 ft | 439 kts | 24° |
| 2026-05-01 11:38 | 22.13874 | -97.94769 | 37123 ft | 439 kts | 24° |
| 2026-05-01 11:38 | 22.19474 | -97.91628 | 37121 ft | 438 kts | 24° |
| 2026-05-01 11:39 | 22.25090 | -97.88476 | 37122 ft | 439 kts | 24° |
| 2026-05-01 11:39 | 22.30613 | -97.85152 | 37124 ft | 440 kts | 28° |
| 2026-05-01 11:40 | 22.36060 | -97.81460 | 37147 ft | 440 kts | 28° |
| 2026-05-01 11:40 | 22.41441 | -97.77798 | 37217 ft | 442 kts | 28° |
| 2026-05-01 11:41 | 22.46840 | -97.74114 | 37127 ft | 442 kts | 28° |
| 2026-05-01 11:41 | 22.52207 | -97.70448 | 36990 ft | 441 kts | 28° |
| 2026-05-01 11:42 | 22.57683 | -97.66705 | 36822 ft | 440 kts | 28° |
| 2026-05-01 11:42 | 22.63138 | -97.62972 | 36818 ft | 440 kts | 28° |
| 2026-05-01 11:43 | 22.68584 | -97.59242 | 36817 ft | 441 kts | 28° |
| 2026-05-01 11:43 | 22.74012 | -97.55521 | 36819 ft | 441 kts | 28° |
| 2026-05-01 11:44 | 22.82313 | -97.49822 | 36816 ft | 440 kts | 28° |
| 2026-05-01 11:44 | 22.87801 | -97.46050 | 36818 ft | 441 kts | 28° |
| 2026-05-01 11:45 | 22.93372 | -97.42217 | 36819 ft | 443 kts | 28° |
| 2026-05-01 11:45 | 22.98865 | -97.38434 | 36818 ft | 444 kts | 27° |
| 2026-05-01 11:46 | 23.04433 | -97.34596 | 36818 ft | 447 kts | 27° |
| 2026-05-01 11:46 | 23.09967 | -97.30779 | 36811 ft | 447 kts | 27° |
| 2026-05-01 11:47 | 23.15541 | -97.26929 | 36813 ft | 447 kts | 28° |
| 2026-05-01 11:47 | 23.21083 | -97.23098 | 36816 ft | 447 kts | 27° |
| 2026-05-01 11:48 | 23.26627 | -97.19261 | 36814 ft | 446 kts | 27° |
| 2026-05-01 11:48 | 23.32195 | -97.15403 | 36819 ft | 446 kts | 27° |
| 2026-05-01 11:49 | 23.37736 | -97.11561 | 36816 ft | 446 kts | 27° |
| 2026-05-01 11:49 | 23.43348 | -97.07666 | 36816 ft | 446 kts | 27° |
| 2026-05-01 11:50 | 23.48937 | -97.03782 | 36815 ft | 445 kts | 27° |
| 2026-05-01 11:50 | 23.54523 | -96.99897 | 36816 ft | 446 kts | 27° |
| 2026-05-01 11:51 | 23.60082 | -96.96027 | 36816 ft | 445 kts | 27° |
| 2026-05-01 11:51 | 23.65632 | -96.92158 | 36816 ft | 445 kts | 27° |
| 2026-05-01 11:52 | 23.71249 | -96.88239 | 36817 ft | 445 kts | 27° |
| 2026-05-01 11:52 | 23.76843 | -96.84332 | 36817 ft | 445 kts | 27° |
| 2026-05-01 11:53 | 23.82435 | -96.80423 | 36816 ft | 445 kts | 27° |
| 2026-05-01 11:53 | 23.88012 | -96.76520 | 36816 ft | 445 kts | 27° |
| 2026-05-01 11:54 | 23.93593 | -96.72610 | 36816 ft | 445 kts | 27° |
| 2026-05-01 11:54 | 23.99150 | -96.68713 | 36817 ft | 445 kts | 27° |
| 2026-05-01 11:55 | 24.04669 | -96.64838 | 36816 ft | 445 kts | 27° |
| 2026-05-01 11:55 | 24.10225 | -96.60933 | 36818 ft | 445 kts | 27° |
| 2026-05-01 11:56 | 24.15769 | -96.57033 | 36821 ft | 445 kts | 27° |
| 2026-05-01 11:56 | 24.21298 | -96.53140 | 36823 ft | 446 kts | 27° |
| 2026-05-01 11:57 | 24.26838 | -96.49233 | 36822 ft | 445 kts | 27° |
| 2026-05-01 11:57 | 24.32365 | -96.45334 | 36823 ft | 445 kts | 27° |
| 2026-05-01 11:58 | 24.37891 | -96.41429 | 36823 ft | 445 kts | 27° |
| 2026-05-01 11:59 | 24.46226 | -96.35533 | 36823 ft | 446 kts | 27° |
| 2026-05-01 11:59 | 24.51718 | -96.31642 | 36815 ft | 446 kts | 27° |
| 2026-05-01 12:00 | 24.59993 | -96.25773 | 36813 ft | 445 kts | 27° |
| 2026-05-01 12:01 | 24.68306 | -96.19868 | 36813 ft | 446 kts | 27° |
| 2026-05-01 12:01 | 24.73843 | -96.15928 | 36813 ft | 445 kts | 27° |
| 2026-05-01 12:02 | 24.79424 | -96.11955 | 36816 ft | 447 kts | 27° |
| 2026-05-01 12:02 | 24.84961 | -96.08006 | 36814 ft | 446 kts | 27° |
| 2026-05-01 12:03 | 24.90520 | -96.04039 | 36814 ft | 445 kts | 27° |
| 2026-05-01 12:03 | 24.96022 | -96.00108 | 36815 ft | 446 kts | 27° |
| 2026-05-01 12:04 | 25.01599 | -95.96118 | 36815 ft | 447 kts | 27° |
| 2026-05-01 12:04 | 25.07167 | -95.92130 | 36815 ft | 449 kts | 27° |
| 2026-05-01 12:05 | 25.12788 | -95.88102 | 36820 ft | 450 kts | 26° |
| 2026-05-01 12:05 | 25.21171 | -95.82085 | 36819 ft | 449 kts | 26° |
| 2026-05-01 12:06 | 25.26756 | -95.78072 | 36818 ft | 450 kts | 26° |
| 2026-05-01 12:06 | 25.32339 | -95.74052 | 36817 ft | 449 kts | 26° |
| 2026-05-01 12:07 | 25.37963 | -95.70002 | 36821 ft | 450 kts | 26° |
| 2026-05-01 12:07 | 25.43571 | -95.65957 | 36822 ft | 450 kts | 26° |
| 2026-05-01 12:08 | 25.49146 | -95.61932 | 36824 ft | 450 kts | 26° |
| 2026-05-01 12:08 | 25.54781 | -95.57858 | 36828 ft | 450 kts | 26° |
| 2026-05-01 12:09 | 25.60358 | -95.53822 | 36829 ft | 449 kts | 26° |
| 2026-05-01 12:09 | 25.65619 | -95.49071 | 36839 ft | 460 kts | 38° |
| 2026-05-01 12:10 | 25.72909 | -95.41107 | 36833 ft | 461 kts | 38° |
| 2026-05-01 12:11 | 25.80206 | -95.33054 | 36820 ft | 461 kts | 38° |
| 2026-05-01 12:11 | 25.85050 | -95.27697 | 36819 ft | 460 kts | 39° |
| 2026-05-01 12:12 | 25.89907 | -95.22317 | 36825 ft | 461 kts | 39° |
| 2026-05-01 12:12 | 25.94746 | -95.16952 | 36822 ft | 461 kts | 39° |
| 2026-05-01 12:13 | 25.99582 | -95.11583 | 36821 ft | 460 kts | 39° |
| 2026-05-01 12:13 | 26.04427 | -95.06198 | 36823 ft | 460 kts | 39° |
| 2026-05-01 12:14 | 26.09297 | -95.00777 | 36822 ft | 461 kts | 39° |
| 2026-05-01 12:14 | 26.14151 | -94.95368 | 36829 ft | 461 kts | 38° |
| 2026-05-01 12:15 | 26.19011 | -94.89946 | 36830 ft | 462 kts | 38° |
| 2026-05-01 12:15 | 26.23855 | -94.84534 | 36829 ft | 461 kts | 38° |
| 2026-05-01 12:16 | 26.28720 | -94.79092 | 36829 ft | 462 kts | 38° |
| 2026-05-01 12:16 | 26.33539 | -94.73697 | 36831 ft | 462 kts | 38° |
| 2026-05-01 12:17 | 26.38386 | -94.68261 | 36831 ft | 462 kts | 38° |
| 2026-05-01 12:17 | 26.43266 | -94.62781 | 36838 ft | 462 kts | 38° |
| 2026-05-01 12:18 | 26.48106 | -94.57340 | 36859 ft | 462 kts | 38° |
| 2026-05-01 12:18 | 26.52979 | -94.51856 | 36892 ft | 463 kts | 38° |
| 2026-05-01 12:19 | 26.57837 | -94.46379 | 36917 ft | 463 kts | 38° |
| 2026-05-01 12:19 | 26.62643 | -94.40956 | 36926 ft | 462 kts | 38° |
| 2026-05-01 12:20 | 26.67458 | -94.35516 | 36936 ft | 462 kts | 38° |
| 2026-05-01 12:20 | 26.72298 | -94.30040 | 36931 ft | 463 kts | 39° |
| 2026-05-01 12:21 | 26.77120 | -94.24577 | 36931 ft | 463 kts | 38° |
| 2026-05-01 12:21 | 26.81900 | -94.19156 | 36931 ft | 462 kts | 38° |
| 2026-05-01 12:22 | 26.86679 | -94.13728 | 36933 ft | 463 kts | 39° |
| 2026-05-01 12:22 | 26.91476 | -94.08270 | 36932 ft | 463 kts | 38° |
| 2026-05-01 12:23 | 26.96297 | -94.02781 | 36934 ft | 467 kts | 37° |
| 2026-05-01 12:23 | 27.01179 | -93.97212 | 36930 ft | 467 kts | 36° |
| 2026-05-01 12:24 | 27.06029 | -93.91678 | 36931 ft | 469 kts | 36° |
| 2026-05-01 12:24 | 27.10897 | -93.86114 | 36934 ft | 468 kts | 36° |
| 2026-05-01 12:25 | 27.18228 | -93.77721 | 36942 ft | 469 kts | 36° |
| 2026-05-01 12:26 | 27.23037 | -93.72204 | 36939 ft | 467 kts | 36° |
| 2026-05-01 12:26 | 27.30294 | -93.63867 | 36942 ft | 468 kts | 36° |
| 2026-05-01 12:27 | 27.37599 | -93.55459 | 36943 ft | 468 kts | 36° |
| 2026-05-01 12:28 | 27.44815 | -93.47135 | 36946 ft | 467 kts | 36° |
| 2026-05-01 12:29 | 27.52136 | -93.38674 | 36945 ft | 469 kts | 36° |
| 2026-05-01 12:29 | 27.59376 | -93.30290 | 36933 ft | 469 kts | 36° |
| 2026-05-01 12:30 | 27.66725 | -93.21761 | 36933 ft | 470 kts | 36° |
| 2026-05-01 12:31 | 27.71662 | -93.16022 | 36932 ft | 470 kts | 36° |
| 2026-05-01 12:31 | 27.76544 | -93.10339 | 36933 ft | 469 kts | 36° |
| 2026-05-01 12:32 | 27.81394 | -93.04686 | 36930 ft | 470 kts | 36° |
| 2026-05-01 12:32 | 27.88716 | -92.96136 | 36929 ft | 469 kts | 36° |
| 2026-05-01 12:33 | 27.93571 | -92.90458 | 36925 ft | 471 kts | 36° |
| 2026-05-01 12:33 | 27.98461 | -92.84729 | 36923 ft | 469 kts | 36° |
| 2026-05-01 12:34 | 28.03340 | -92.79007 | 36934 ft | 470 kts | 36° |
| 2026-05-01 12:34 | 28.08238 | -92.73254 | 36942 ft | 469 kts | 36° |
| 2026-05-01 12:35 | 28.13131 | -92.67503 | 36962 ft | 474 kts | 36° |
| 2026-05-01 12:35 | 28.18042 | -92.61713 | 36961 ft | 471 kts | 36° |
| 2026-05-01 12:36 | 28.22928 | -92.55951 | 36955 ft | 469 kts | 36° |
| 2026-05-01 12:36 | 28.27811 | -92.50186 | 36953 ft | 472 kts | 36° |
| 2026-05-01 12:37 | 28.32622 | -92.44492 | 36956 ft | 470 kts | 36° |
| 2026-05-01 12:37 | 28.37424 | -92.38806 | 36967 ft | 470 kts | 36° |
| 2026-05-01 12:38 | 28.42266 | -92.33061 | 36953 ft | 471 kts | 36° |
| 2026-05-01 12:38 | 28.47134 | -92.27281 | 36953 ft | 472 kts | 36° |
| 2026-05-01 12:39 | 28.51985 | -92.21510 | 36947 ft | 473 kts | 36° |
| 2026-05-01 12:39 | 28.56847 | -92.15716 | 36949 ft | 472 kts | 36° |
| 2026-05-01 12:40 | 28.61670 | -92.09961 | 36960 ft | 468 kts | 36° |
| 2026-05-01 12:40 | 28.66437 | -92.04267 | 36960 ft | 466 kts | 36° |
| 2026-05-01 12:41 | 28.71249 | -91.98514 | 36961 ft | 469 kts | 36° |
| 2026-05-01 12:41 | 28.76041 | -91.92773 | 36962 ft | 468 kts | 36° |
| 2026-05-01 12:42 | 28.80800 | -91.87062 | 36959 ft | 467 kts | 36° |
| 2026-05-01 12:42 | 28.85563 | -91.81338 | 36958 ft | 467 kts | 36° |
| 2026-05-01 12:43 | 28.90338 | -91.75596 | 36968 ft | 467 kts | 36° |
| 2026-05-01 12:43 | 28.95105 | -91.69850 | 36962 ft | 466 kts | 36° |
| 2026-05-01 12:44 | 28.99870 | -91.64103 | 36964 ft | 467 kts | 36° |
| 2026-05-01 12:45 | 29.09377 | -91.52606 | 36965 ft | 467 kts | 37° |
| 2026-05-01 12:45 | 29.14111 | -91.46870 | 36978 ft | 468 kts | 37° |
| 2026-05-01 12:46 | 29.18879 | -91.41084 | 36975 ft | 467 kts | 37° |
| 2026-05-01 12:46 | 29.23596 | -91.35352 | 36978 ft | 468 kts | 37° |
| 2026-05-01 12:47 | 29.28316 | -91.29606 | 36961 ft | 467 kts | 37° |
| 2026-05-01 12:47 | 29.32979 | -91.23924 | 36961 ft | 468 kts | 37° |
| 2026-05-01 12:48 | 29.37708 | -91.18153 | 36964 ft | 470 kts | 37° |
| 2026-05-01 12:48 | 29.42396 | -91.12422 | 36957 ft | 469 kts | 38° |
| 2026-05-01 12:49 | 29.47109 | -91.06655 | 36959 ft | 470 kts | 38° |
| 2026-05-01 12:49 | 29.51834 | -91.00863 | 36955 ft | 470 kts | 39° |
| 2026-05-01 12:50 | 29.56616 | -90.94991 | 36955 ft | 472 kts | 39° |
| 2026-05-01 12:50 | 29.61339 | -90.89182 | 36950 ft | 471 kts | 39° |
| 2026-05-01 12:51 | 29.66037 | -90.83297 | 36954 ft | 475 kts | 44° |
| 2026-05-01 12:52 | 29.72321 | -90.73533 | 36955 ft | 478 kts | 47° |
| 2026-05-01 12:52 | 29.78536 | -90.63644 | 36955 ft | 478 kts | 47° |
| 2026-05-01 12:53 | 29.84729 | -90.53755 | 36959 ft | 478 kts | 47° |
| 2026-05-01 12:54 | 29.88831 | -90.47189 | 36968 ft | 478 kts | 47° |
| 2026-05-01 12:54 | 29.94973 | -90.37341 | 36966 ft | 478 kts | 47° |
| 2026-05-01 12:55 | 30.01113 | -90.27473 | 36955 ft | 480 kts | 48° |
| 2026-05-01 12:56 | 30.05209 | -90.20873 | 36957 ft | 479 kts | 47° |
| 2026-05-01 12:56 | 30.09263 | -90.14333 | 36964 ft | 480 kts | 47° |
| 2026-05-01 12:57 | 30.13355 | -90.07718 | 36965 ft | 479 kts | 48° |
| 2026-05-01 12:57 | 30.19467 | -89.97823 | 36977 ft | 479 kts | 47° |
| 2026-05-01 12:58 | 30.23556 | -89.91187 | 36975 ft | 479 kts | 47° |
| 2026-05-01 12:59 | 30.29724 | -89.81157 | 36974 ft | 480 kts | 47° |
| 2026-05-01 12:59 | 30.35861 | -89.71154 | 36974 ft | 480 kts | 48° |
| 2026-05-01 13:00 | 30.41988 | -89.61142 | 36971 ft | 479 kts | 48° |
| 2026-05-01 13:01 | 30.48108 | -89.51115 | 36971 ft | 480 kts | 48° |
| 2026-05-01 13:02 | 30.54181 | -89.41139 | 36969 ft | 480 kts | 48° |
| 2026-05-01 13:07 | 30.98682 | -88.67278 | 36987 ft | 482 kts | 50° |
| 2026-05-01 13:08 | 31.02701 | -88.60537 | 36996 ft | 480 kts | 50° |
| 2026-05-01 13:08 | 31.06712 | -88.53802 | 36996 ft | 480 kts | 50° |
| 2026-05-01 13:09 | 31.10745 | -88.47067 | 36996 ft | 480 kts | 49° |
| 2026-05-01 13:09 | 31.14861 | -88.40443 | 36995 ft | 478 kts | 49° |
| 2026-05-01 13:10 | 31.18992 | -88.33769 | 36989 ft | 480 kts | 49° |
| 2026-05-01 13:10 | 31.23109 | -88.27104 | 36985 ft | 480 kts | 49° |
| 2026-05-01 13:11 | 31.27232 | -88.20418 | 36988 ft | 481 kts | 49° |
| 2026-05-01 13:11 | 31.31325 | -88.13771 | 36988 ft | 481 kts | 50° |
| 2026-05-01 13:12 | 31.35481 | -88.07009 | 36988 ft | 481 kts | 49° |
| 2026-05-01 13:12 | 31.39596 | -88.00301 | 36999 ft | 480 kts | 49° |
| 2026-05-01 13:13 | 31.43710 | -87.93585 | 37002 ft | 480 kts | 49° |
| 2026-05-01 13:13 | 31.47811 | -87.86874 | 37001 ft | 480 kts | 49° |
| 2026-05-01 13:14 | 31.51879 | -87.80198 | 37003 ft | 480 kts | 49° |
| 2026-05-01 13:14 | 31.55926 | -87.73524 | 37001 ft | 480 kts | 49° |
| 2026-05-01 13:15 | 31.59993 | -87.66801 | 37003 ft | 479 kts | 49° |
| 2026-05-01 13:15 | 31.64076 | -87.60044 | 37006 ft | 482 kts | 50° |
| 2026-05-01 13:16 | 31.68120 | -87.53333 | 37003 ft | 480 kts | 49° |
| 2026-05-01 13:16 | 31.72200 | -87.46554 | 37006 ft | 480 kts | 49° |
| 2026-05-01 13:17 | 31.80282 | -87.33092 | 36999 ft | 481 kts | 50° |
| 2026-05-01 13:18 | 31.86376 | -87.22910 | 37001 ft | 481 kts | 50° |
| 2026-05-01 13:18 | 31.90426 | -87.16124 | 37002 ft | 479 kts | 50° |
| 2026-05-01 13:19 | 31.94463 | -87.09354 | 37009 ft | 482 kts | 50° |
| 2026-05-01 13:20 | 32.00544 | -86.99129 | 37005 ft | 480 kts | 50° |
| 2026-05-01 13:20 | 32.04574 | -86.92341 | 37010 ft | 483 kts | 51° |
| 2026-05-01 13:21 | 32.10629 | -86.82111 | 37011 ft | 481 kts | 51° |
| 2026-05-01 13:21 | 32.14648 | -86.75308 | 37015 ft | 482 kts | 51° |
| 2026-05-01 13:22 | 32.18702 | -86.68433 | 37015 ft | 482 kts | 51° |
| 2026-05-01 13:22 | 32.22710 | -86.61626 | 37014 ft | 482 kts | 51° |
| 2026-05-01 13:23 | 32.24758 | -86.58144 | 36638 ft | 486 kts | 51° |
| 2026-05-01 13:23 | 32.26751 | -86.54748 | 36047 ft | 483 kts | 51° |
| 2026-05-01 13:23 | 32.28770 | -86.51305 | 35454 ft | 481 kts | 51° |
| 2026-05-01 13:23 | 32.30770 | -86.47894 | 34867 ft | 479 kts | 51° |
| 2026-05-01 13:24 | 32.32755 | -86.44506 | 34284 ft | 476 kts | 51° |
| 2026-05-01 13:24 | 32.34735 | -86.41122 | 33701 ft | 474 kts | 51° |
| 2026-05-01 13:24 | 32.36713 | -86.37740 | 33117 ft | 472 kts | 51° |
| 2026-05-01 13:25 | 32.40624 | -86.31044 | 31941 ft | 474 kts | 51° |
| 2026-05-01 13:25 | 32.42607 | -86.27643 | 31332 ft | 475 kts | 52° |
| 2026-05-01 13:25 | 32.44593 | -86.24235 | 30714 ft | 476 kts | 52° |
| 2026-05-01 13:25 | 32.46601 | -86.20784 | 30081 ft | 474 kts | 52° |
| 2026-05-01 13:26 | 32.48582 | -86.17377 | 29454 ft | 471 kts | 52° |
| 2026-05-01 13:26 | 32.50550 | -86.13989 | 28831 ft | 469 kts | 52° |
| 2026-05-01 13:26 | 32.52509 | -86.10616 | 28210 ft | 466 kts | 52° |
| 2026-05-01 13:26 | 32.54449 | -86.07269 | 27595 ft | 463 kts | 52° |
| 2026-05-01 13:27 | 32.56379 | -86.03940 | 26985 ft | 461 kts | 52° |
| 2026-05-01 13:27 | 32.58297 | -86.00626 | 26377 ft | 458 kts | 52° |
| 2026-05-01 13:27 | 32.62100 | -85.94050 | 25172 ft | 452 kts | 52° |
| 2026-05-01 13:28 | 32.65870 | -85.87517 | 23973 ft | 446 kts | 52° |
| 2026-05-01 13:28 | 32.67729 | -85.84293 | 23381 ft | 443 kts | 52° |
| 2026-05-01 13:29 | 32.71346 | -85.78007 | 22597 ft | 429 kts | 52° |
| 2026-05-01 13:29 | 32.74889 | -85.71846 | 21429 ft | 425 kts | 52° |
| 2026-05-01 13:30 | 32.81908 | -85.59602 | 19463 ft | 407 kts | 52° |
| 2026-05-01 13:31 | 32.85294 | -85.53683 | 18299 ft | 406 kts | 52° |
| 2026-05-01 13:31 | 32.90271 | -85.44960 | 17142 ft | 386 kts | 53° |
| 2026-05-01 13:32 | 32.93430 | -85.39418 | 16159 ft | 376 kts | 53° |
| 2026-05-01 13:33 | 32.98028 | -85.31335 | 14542 ft | 369 kts | 53° |
| 2026-05-01 13:33 | 33.01062 | -85.25990 | 13532 ft | 362 kts | 53° |
| 2026-05-01 13:34 | 33.04001 | -85.20804 | 12606 ft | 355 kts | 53° |
| 2026-05-01 13:34 | 33.06933 | -85.15627 | 11646 ft | 356 kts | 53° |
| 2026-05-01 13:35 | 33.09794 | -85.10558 | 11254 ft | 329 kts | 52° |
| 2026-05-01 13:35 | 33.11101 | -85.08240 | 11177 ft | 311 kts | 52° |
| 2026-05-01 13:35 | 33.13732 | -85.03870 | 10531 ft | 301 kts | 49° |
| 2026-05-01 13:36 | 33.15041 | -85.01747 | 10230 ft | 298 kts | 49° |
| 2026-05-01 13:36 | 33.16351 | -84.99623 | 9785 ft | 303 kts | 49° |
| 2026-05-01 13:36 | 33.18982 | -84.95370 | 9200 ft | 297 kts | 49° |
| 2026-05-01 13:37 | 33.20278 | -84.93273 | 8914 ft | 294 kts | 49° |
| 2026-05-01 13:37 | 33.21564 | -84.91192 | 8639 ft | 291 kts | 49° |
| 2026-05-01 13:37 | 33.22834 | -84.89135 | 8375 ft | 288 kts | 49° |
| 2026-05-01 13:37 | 33.24237 | -84.87223 | 7997 ft | 281 kts | 32° |
| 2026-05-01 13:38 | 33.27704 | -84.84637 | 8010 ft | 276 kts | 26° |
| 2026-05-01 13:38 | 33.29481 | -84.83456 | 8002 ft | 271 kts | 15° |
| 2026-05-01 13:38 | 33.31402 | -84.83076 | 8027 ft | 263 kts | 356° |
| 2026-05-01 13:39 | 33.33354 | -84.83040 | 8010 ft | 264 kts | 356° |
| 2026-05-01 13:39 | 33.35281 | -84.82989 | 8009 ft | 263 kts | 356° |
| 2026-05-01 13:39 | 33.37250 | -84.82945 | 8010 ft | 263 kts | 356° |
| 2026-05-01 13:39 | 33.39192 | -84.82908 | 8010 ft | 263 kts | 355° |
| 2026-05-01 13:40 | 33.41141 | -84.82943 | 8010 ft | 262 kts | 353° |
| 2026-05-01 13:40 | 33.43067 | -84.83034 | 8016 ft | 254 kts | 353° |
| 2026-05-01 13:40 | 33.44939 | -84.83140 | 8020 ft | 254 kts | 353° |
| 2026-05-01 13:40 | 33.46827 | -84.83248 | 7915 ft | 258 kts | 353° |
| 2026-05-01 13:41 | 33.48747 | -84.83364 | 7637 ft | 255 kts | 353° |
| 2026-05-01 13:41 | 33.50616 | -84.83486 | 7381 ft | 252 kts | 353° |
| 2026-05-01 13:41 | 33.52477 | -84.83616 | 7136 ft | 248 kts | 353° |
| 2026-05-01 13:41 | 33.54261 | -84.83746 | 6997 ft | 239 kts | 353° |
| 2026-05-01 13:42 | 33.56006 | -84.83874 | 6790 ft | 231 kts | 353° |
| 2026-05-01 13:42 | 33.57677 | -84.83998 | 6599 ft | 222 kts | 353° |
| 2026-05-01 13:42 | 33.59291 | -84.83942 | 6421 ft | 218 kts | 11° |
| 2026-05-01 13:42 | 33.60617 | -84.82910 | 6283 ft | 220 kts | 47° |
| 2026-05-01 13:43 | 33.61373 | -84.81149 | 6165 ft | 224 kts | 63° |
| 2026-05-01 13:43 | 33.61996 | -84.79312 | 5983 ft | 222 kts | 63° |
| 2026-05-01 13:43 | 33.62625 | -84.77480 | 5778 ft | 220 kts | 63° |
| 2026-05-01 13:43 | 33.63243 | -84.75683 | 5565 ft | 218 kts | 63° |
| 2026-05-01 13:44 | 33.63859 | -84.73899 | 5345 ft | 216 kts | 63° |
| 2026-05-01 13:44 | 33.64457 | -84.72115 | 5117 ft | 215 kts | 68° |
| 2026-05-01 13:44 | 33.64630 | -84.70242 | 5005 ft | 209 kts | 86° |
| 2026-05-01 13:44 | 33.64630 | -84.68473 | 4984 ft | 193 kts | 85° |
| 2026-05-01 13:45 | 33.64643 | -84.66773 | 4717 ft | 189 kts | 86° |
| 2026-05-01 13:45 | 33.64653 | -84.65138 | 4463 ft | 184 kts | 88° |
| 2026-05-01 13:45 | 33.64660 | -84.63524 | 4210 ft | 182 kts | 88° |
| 2026-05-01 13:45 | 33.64664 | -84.61904 | 3961 ft | 181 kts | 89° |
| 2026-05-01 13:46 | 33.64668 | -84.60283 | 3708 ft | 181 kts | 89° |
| 2026-05-01 13:46 | 33.64671 | -84.58696 | 3458 ft | 180 kts | 89° |
| 2026-05-01 13:46 | 33.64673 | -84.57085 | 3202 ft | 179 kts | 89° |
| 2026-05-01 13:46 | 33.64675 | -84.55511 | 2949 ft | 178 kts | 89° |
| 2026-05-01 13:47 | 33.64677 | -84.53922 | 2694 ft | 178 kts | 89° |
| 2026-05-01 13:47 | 33.64678 | -84.52348 | 2440 ft | 177 kts | 89° |
| 2026-05-01 13:47 | 33.64679 | -84.50801 | 2182 ft | 172 kts | 89° |
| 2026-05-01 13:47 | 33.64679 | -84.49330 | 1953 ft | 160 kts | 89° |
| 2026-05-01 13:48 | 33.64678 | -84.47975 | 1719 ft | 152 kts | 89° |
| 2026-05-01 13:48 | 33.64676 | -84.46609 | 1519 ft | 154 kts | 89° |
| 2026-05-01 13:48 | 33.64681 | -84.45283 | 1280 ft | 147 kts | 89° |
| 2026-05-01 13:48 | 33.64674 | -84.44037 | 1071 ft | 135 kts | 89° |
| 2026-05-01 13:49 | 33.64674 | -84.42918 | 1004 ft | 104 kts | 89° |
| 2026-05-01 13:49 | 33.64679 | -84.42311 | 988 ft | 37 kts | 90° |
| 2026-05-01 13:49 | 33.64677 | -84.42088 | 981 ft | 23 kts | 89° |
| 2026-05-01 13:49 | 33.64678 | -84.41881 | 977 ft | 22 kts | 90° |
| 2026-05-01 13:50 | 33.64659 | -84.41687 | 976 ft | 21 kts | 106° |
| 2026-05-01 13:50 | 33.64621 | -84.41582 | 976 ft | 8 kts | 127° |
| 2026-05-01 13:50 | 33.64566 | -84.41551 | 974 ft | 9 kts | 197° |
| 2026-05-01 13:50 | 33.64540 | -84.41633 | 973 ft | 11 kts | 270° |
| 2026-05-01 13:51 | 33.64542 | -84.41747 | 974 ft | 14 kts | 270° |
| 2026-05-01 13:51 | 33.64542 | -84.41881 | 974 ft | 15 kts | 270° |
| 2026-05-01 13:51 | 33.64543 | -84.42022 | 977 ft | 16 kts | 270° |
| 2026-05-01 13:51 | 33.64520 | -84.42151 | 982 ft | 14 kts | 242° |
| 2026-05-01 13:52 | 33.64477 | -84.42266 | 986 ft | 13 kts | 256° |
| 2026-05-01 13:52 | 33.64470 | -84.42375 | 991 ft | 11 kts | 268° |
| 2026-05-01 13:52 | 33.64469 | -84.42470 | 995 ft | 10 kts | 269° |
| 2026-05-01 13:52 | 33.64469 | -84.42551 | 998 ft | 8 kts | 270° |
| 2026-05-01 13:53 | 33.64469 | -84.42622 | 1001 ft | 7 kts | 270° |
| 2026-05-01 13:53 | 33.64428 | -84.42729 | 1005 ft | 8 kts | 197° |
| 2026-05-01 13:53 | 33.64362 | -84.42736 | 1006 ft | 10 kts | 182° |
| 2026-05-01 13:54 | 33.64281 | -84.42733 | 1006 ft | 5 kts | 162° |
| 2026-05-01 13:54 | 33.64259 | -84.42706 | 1006 ft | 4 kts | 115° |
| 2026-05-01 13:54 | 33.64253 | -84.42667 | 1005 ft | 4 kts | 92° |
| 2026-05-01 13:54 | 33.64252 | -84.42638 | 1005 ft | 1 kts | 90° |
| 2026-05-01 13:55 | 33.64252 | -84.42629 | 1005 ft | 0 kts | 90° |